Time;durP1;ratioP1;P1;durP2;ratioP2;P2;SDS_P1;SDS_P2;PMS_P1;PMS_P2;Temp;Humidity;BMP_temperature;BMP_pressure;BME280_temperature;BME280_humidity;BME280_pressure;Samples;Min_cycle;Max_cycle;Signal;HPM_P1;HPM_P2
2021/05/02 00:00:36;;;;;;;1999.90;999.90;;;7.90;74.20;;;;;;5091788;28;20418;-72
2021/05/02 00:03:05;;;;;;;1999.90;999.90;;;7.80;74.10;;;;;;5066083;28;20040;-71
2021/05/02 00:05:35;;;;;;;1999.90;999.90;;;7.80;74.10;;;;;;5071076;28;20048;-71
2021/05/02 00:08:03;;;;;;;1999.90;999.90;;;7.80;74.50;;;;;;5091745;28;20059;-72
2021/05/02 00:10:33;;;;;;;1999.90;999.90;;;7.70;74.10;;;;;;5086881;28;20087;-72
2021/05/02 00:13:00;;;;;;;1999.90;999.90;;;7.70;74.00;;;;;;5090262;28;20305;-72
2021/05/02 00:15:28;;;;;;;1999.90;999.90;;;7.60;73.90;;;;;;5083881;28;20150;-71
2021/05/02 00:17:58;;;;;;;1999.90;999.90;;;7.60;74.20;;;;;;5103969;28;20052;-71
2021/05/02 00:20:26;;;;;;;1999.90;999.90;;;7.50;74.10;;;;;;5079946;28;20114;-71
2021/05/02 00:23:02;;;;;;;1999.90;999.90;;;7.50;74.30;;;;;;5088257;28;20040;-72
2021/05/02 00:25:31;;;;;;;1999.90;999.90;;;7.40;74.40;;;;;;5085641;28;20134;-71
2021/05/02 00:27:58;;;;;;;1999.90;999.90;;;7.30;74.30;;;;;;5085568;28;20048;-71
2021/05/02 00:30:36;;;;;;;1999.90;999.90;;;7.30;74.40;;;;;;5085248;28;20043;-72
2021/05/02 00:33:04;;;;;;;1999.90;999.90;;;7.20;74.50;;;;;;5090379;28;20128;-72
2021/05/02 00:35:31;;;;;;;1999.90;999.90;;;7.20;74.20;;;;;;5077137;28;20388;-72
2021/05/02 00:37:57;;;;;;;1999.90;999.90;;;7.20;74.40;;;;;;5093007;28;20058;-72
2021/05/02 00:40:39;;;;;;;1999.90;999.90;;;7.20;74.80;;;;;;5084381;28;20044;-71
2021/05/02 00:43:11;;;;;;;1999.90;999.90;;;7.20;74.80;;;;;;5093423;28;20089;-71
2021/05/02 00:46:01;;;;;;;1999.90;999.90;;;7.10;74.40;;;;;;5083980;28;20048;-71
2021/05/02 00:48:55;;;;;;;1999.90;999.90;;;7.20;74.50;;;;;;5088773;28;20040;-71
2021/05/02 00:51:22;;;;;;;1999.90;999.90;;;7.10;74.30;;;;;;5099059;28;20050;-71
2021/05/02 00:53:57;;;;;;;1999.90;999.90;;;7.10;74.30;;;;;;5076671;28;20124;-71
2021/05/02 00:56:26;;;;;;;1999.90;999.90;;;7.10;75.10;;;;;;5090169;28;20048;-72
2021/05/02 00:59:19;;;;;;;1999.90;999.90;;;7.00;74.70;;;;;;5084982;28;20040;-72
2021/05/02 01:01:50;;;;;;;1999.90;999.90;;;7.00;74.60;;;;;;5083894;28;20139;-71
2021/05/02 01:04:52;;;;;;;1999.90;999.90;;;7.00;74.90;;;;;;5097196;28;20043;-71
2021/05/02 01:07:22;;;;;;;1999.90;999.90;;;6.90;75.60;;;;;;5087708;28;20079;-72
2021/05/02 01:09:49;;;;;;;1999.90;999.90;;;6.90;75.80;;;;;;5098034;28;20059;-71
2021/05/02 01:12:20;;;;;;;1999.90;999.90;;;6.80;75.50;;;;;;5078651;28;20047;-71
2021/05/02 01:14:53;;;;;;;1999.90;999.90;;;6.80;75.90;;;;;;5096430;28;20044;-72
2021/05/02 01:17:21;;;;;;;1999.90;999.90;;;6.80;75.70;;;;;;5099682;28;20367;-71
2021/05/02 01:19:48;;;;;;;1999.90;999.90;;;6.80;75.60;;;;;;5084149;28;20158;-72
2021/05/02 01:22:20;;;;;;;1999.90;999.90;;;6.80;75.30;;;;;;5085911;28;20045;-72
2021/05/02 01:24:51;;;;;;;1999.90;999.90;;;6.80;76.10;;;;;;5094909;28;20051;-72
2021/05/02 01:27:30;;;;;;;1999.90;999.90;;;6.80;75.60;;;;;;5089447;28;20068;-71
2021/05/02 01:29:57;;;;;;;1999.90;999.90;;;6.70;75.10;;;;;;5099896;28;20066;-72
2021/05/02 01:32:26;;;;;;;1999.90;999.90;;;6.70;75.70;;;;;;5083207;28;20051;-71
2021/05/02 01:34:53;;;;;;;1999.90;999.90;;;6.70;75.20;;;;;;5084584;28;20819;-72
2021/05/02 01:37:19;;;;;;;1999.90;999.90;;;6.70;75.50;;;;;;5085716;28;20050;-71
2021/05/02 01:39:47;;;;;;;1999.90;999.90;;;6.70;75.20;;;;;;5086295;28;20127;-72
2021/05/02 01:42:13;;;;;;;1999.90;999.90;;;6.60;75.90;;;;;;5088062;28;20089;-72
2021/05/02 01:44:40;;;;;;;1999.90;999.90;;;6.60;75.30;;;;;;5070122;28;20074;-71
2021/05/02 01:47:14;;;;;;;1999.90;999.90;;;6.60;75.30;;;;;;5080653;28;20112;-71
2021/05/02 01:49:48;;;;;;;1999.90;999.90;;;6.60;75.50;;;;;;5087252;28;20413;-72
2021/05/02 01:52:16;;;;;;;1999.90;999.90;;;6.60;75.40;;;;;;5092205;28;20048;-71
2021/05/02 01:54:43;;;;;;;1999.90;999.90;;;6.50;75.20;;;;;;5080518;28;20048;-71
2021/05/02 01:57:14;;;;;;;1999.90;999.90;;;6.50;75.30;;;;;;5081655;28;20043;-71
2021/05/02 01:59:43;;;;;;;1999.90;999.90;;;6.40;75.00;;;;;;5076794;28;20134;-71
2021/05/02 02:02:10;;;;;;;1999.90;999.90;;;6.40;74.90;;;;;;5087856;28;20036;-71
2021/05/02 02:04:40;;;;;;;1999.90;999.90;;;6.40;75.30;;;;;;5084111;28;20066;-71
2021/05/02 02:07:07;;;;;;;1999.90;999.90;;;6.40;75.00;;;;;;5079188;28;20045;-71
2021/05/02 02:09:35;;;;;;;1999.90;999.90;;;6.30;74.80;;;;;;5085688;28;20113;-72
2021/05/02 02:12:01;;;;;;;1999.90;999.90;;;6.30;75.30;;;;;;5083535;28;20047;-71
2021/05/02 02:14:28;;;;;;;1999.90;999.90;;;6.30;75.00;;;;;;5091474;28;20044;-70
2021/05/02 02:16:55;;;;;;;1999.90;999.90;;;6.20;74.90;;;;;;5089282;28;20131;-72
2021/05/02 02:19:21;;;;;;;1999.90;999.90;;;6.20;74.90;;;;;;5083243;28;20059;-72
2021/05/02 02:21:50;;;;;;;1999.90;999.90;;;6.10;75.00;;;;;;5080625;28;20049;-72
2021/05/02 02:24:32;;;;;;;1999.90;999.90;;;6.10;75.00;;;;;;5086293;28;20084;-71
2021/05/02 02:27:01;;;;;;;1999.90;999.90;;;6.10;75.10;;;;;;5086590;28;20486;-70
2021/05/02 02:29:29;;;;;;;1999.90;999.90;;;6.10;75.30;;;;;;5084226;28;20040;-71
2021/05/02 02:31:59;;;;;;;1999.90;999.90;;;6.00;75.00;;;;;;5083332;28;20418;-71
2021/05/02 02:34:28;;;;;;;1999.90;999.90;;;6.00;75.00;;;;;;5085347;28;21796;-72
2021/05/02 02:36:54;;;;;;;1999.90;999.90;;;6.00;75.40;;;;;;5086394;28;20482;-72
2021/05/02 02:39:44;;;;;;;1999.90;999.90;;;6.00;75.20;;;;;;5089971;28;20052;-71
2021/05/02 02:42:12;;;;;;;1999.90;999.90;;;6.00;75.30;;;;;;5083607;28;20044;-72
2021/05/02 02:44:44;;;;;;;1999.90;999.90;;;5.90;75.10;;;;;;5083348;28;20049;-71
2021/05/02 02:47:13;;;;;;;1999.90;999.90;;;5.90;75.10;;;;;;5084249;28;20455;-71
2021/05/02 02:49:45;;;;;;;1999.90;999.90;;;5.90;75.10;;;;;;5085102;28;20105;-71
2021/05/02 02:52:16;;;;;;;1999.90;999.90;;;5.90;75.20;;;;;;5099029;27;20050;-71
2021/05/02 02:54:48;;;;;;;1999.90;999.90;;;5.80;74.90;;;;;;5087841;28;20048;-72
2021/05/02 02:57:20;;;;;;;1999.90;999.90;;;5.70;75.20;;;;;;5069461;28;20054;-72
2021/05/02 02:59:48;;;;;;;1999.90;999.90;;;5.70;75.40;;;;;;5089742;28;20039;-71
2021/05/02 03:02:17;;;;;;;1999.90;999.90;;;5.70;75.20;;;;;;5075402;28;20040;-71
2021/05/02 03:04:46;;;;;;;1999.90;999.90;;;5.60;74.80;;;;;;5087324;28;20471;-71
2021/05/02 03:07:12;;;;;;;1999.90;999.90;;;5.60;75.20;;;;;;5084664;28;20433;-71
2021/05/02 03:09:41;;;;;;;1999.90;999.90;;;5.50;75.30;;;;;;5081069;28;20048;-71
2021/05/02 03:12:10;;;;;;;1999.90;999.90;;;5.40;75.20;;;;;;5081343;28;20455;-71
2021/05/02 03:14:37;;;;;;;1999.90;999.90;;;5.40;75.20;;;;;;5077150;28;20048;-71
2021/05/02 03:17:08;;;;;;;1999.90;999.90;;;5.30;75.20;;;;;;5084435;28;20052;-71
2021/05/02 03:19:39;;;;;;;1999.90;999.90;;;5.30;75.60;;;;;;5078663;28;20044;-71
2021/05/02 03:22:13;;;;;;;1999.90;999.90;;;5.30;75.50;;;;;;5069690;28;20048;-71
2021/05/02 03:24:43;;;;;;;1999.90;999.90;;;5.30;76.30;;;;;;5077797;28;20044;-71
2021/05/02 03:27:18;;;;;;;1999.90;999.90;;;5.30;75.80;;;;;;5087002;28;20036;-71
2021/05/02 03:29:49;;;;;;;1999.90;999.90;;;5.30;75.70;;;;;;5089261;28;20054;-71
2021/05/02 03:32:18;;;;;;;1999.90;999.90;;;5.30;75.70;;;;;;5081598;28;20056;-72
2021/05/02 03:34:47;;;;;;;1999.90;999.90;;;5.30;76.00;;;;;;5078810;28;20059;-71
2021/05/02 03:37:18;;;;;;;1999.90;999.90;;;5.30;76.10;;;;;;5086195;28;20048;-71
2021/05/02 03:39:48;;;;;;;1999.90;999.90;;;5.30;75.90;;;;;;5084933;28;20050;-71
2021/05/02 03:42:16;;;;;;;1999.90;999.90;;;5.30;76.10;;;;;;5080535;28;20087;-72
2021/05/02 03:44:43;;;;;;;1999.90;999.90;;;5.20;75.70;;;;;;5087664;28;20406;-72
2021/05/02 03:47:10;;;;;;;1999.90;999.90;;;5.20;75.90;;;;;;5055191;28;20055;-71
2021/05/02 03:49:38;;;;;;;1999.90;999.90;;;5.20;75.90;;;;;;5086141;28;20056;-71
2021/05/02 03:52:05;;;;;;;1999.90;999.90;;;5.20;75.70;;;;;;5078569;28;20411;-71
2021/05/02 03:54:31;;;;;;;1999.90;999.90;;;5.20;76.00;;;;;;5087871;28;20048;-71
2021/05/02 03:56:57;;;;;;;1999.90;999.90;;;5.20;76.10;;;;;;5085373;28;20054;-70
2021/05/02 03:59:25;;;;;;;1999.90;999.90;;;5.30;76.40;;;;;;5085414;28;20477;-71
2021/05/02 04:01:57;;;;;;;1999.90;999.90;;;5.30;76.50;;;;;;5080995;28;20093;-71
2021/05/02 04:04:26;;;;;;;1999.90;999.90;;;5.30;76.80;;;;;;5085560;28;20501;-71
2021/05/02 04:06:59;;;;;;;1999.90;999.90;;;5.30;76.80;;;;;;5073365;28;20493;-71
2021/05/02 04:09:26;;;;;;;1999.90;999.90;;;5.30;76.70;;;;;;5069449;28;20040;-71
2021/05/02 04:11:53;;;;;;;1999.90;999.90;;;5.30;76.70;;;;;;5080085;28;20395;-71
2021/05/02 04:14:19;;;;;;;1999.90;999.90;;;5.20;76.50;;;;;;5080951;28;20516;-71
2021/05/02 04:16:56;;;;;;;1999.90;999.90;;;5.20;76.50;;;;;;5084204;28;20127;-72
2021/05/02 04:19:23;;;;;;;1999.90;999.90;;;5.20;76.90;;;;;;5082314;28;20040;-71
2021/05/02 04:21:50;;;;;;;1999.90;999.90;;;5.20;76.70;;;;;;5084336;28;20048;-71
2021/05/02 04:24:18;;;;;;;1999.90;999.90;;;5.10;76.60;;;;;;5089103;28;20693;-71
2021/05/02 04:26:53;;;;;;;1999.90;999.90;;;5.10;76.70;;;;;;5083143;28;20109;-72
2021/05/02 04:29:33;;;;;;;1999.90;999.90;;;5.10;77.00;;;;;;5087095;28;20044;-71
2021/05/02 04:32:01;;;;;;;1999.90;999.90;;;5.10;77.10;;;;;;5079890;28;20039;-71
2021/05/02 04:34:28;;;;;;;1999.90;999.90;;;5.00;76.80;;;;;;5073189;28;20131;-71
2021/05/02 04:36:56;;;;;;;1999.90;999.90;;;5.00;77.10;;;;;;5064970;28;20094;-71
2021/05/02 04:39:23;;;;;;;1999.90;999.90;;;5.10;77.50;;;;;;5087960;28;20044;-71
2021/05/02 04:41:50;;;;;;;1999.90;999.90;;;5.10;77.30;;;;;;5080638;28;20444;-71
2021/05/02 04:44:19;;;;;;;1999.90;999.90;;;5.00;77.30;;;;;;5089270;28;20044;-71
2021/05/02 04:46:46;;;;;;;1999.90;999.90;;;5.00;77.50;;;;;;5085978;28;20809;-71
2021/05/02 04:49:13;;;;;;;1999.90;999.90;;;5.00;77.60;;;;;;5086912;28;20407;-71
2021/05/02 04:51:39;;;;;;;1999.90;999.90;;;5.00;77.80;;;;;;5086177;28;20430;-72
2021/05/02 04:54:08;;;;;;;1999.90;999.90;;;5.10;77.90;;;;;;5073768;28;20364;-71
2021/05/02 04:56:35;;;;;;;1999.90;999.90;;;5.20;78.40;;;;;;5088465;28;20066;-71
2021/05/02 04:59:02;;;;;;;1999.90;999.90;;;5.20;78.60;;;;;;5079760;28;20407;-72
2021/05/02 05:01:28;;;;;;;1999.90;999.90;;;5.30;79.00;;;;;;5069290;28;20353;-72
2021/05/02 05:03:56;;;;;;;1999.90;999.90;;;5.50;79.40;;;;;;5070816;28;20048;-72
2021/05/02 05:06:23;;;;;;;1999.90;999.90;;;5.60;79.70;;;;;;5092323;28;20552;-71
2021/05/02 05:08:50;;;;;;;1999.90;999.90;;;5.70;80.00;;;;;;5086416;28;20047;-72
2021/05/02 05:11:18;;;;;;;1999.90;999.90;;;5.70;80.20;;;;;;5084863;28;20127;-71
2021/05/02 05:13:45;;;;;;;1999.90;999.90;;;5.80;80.20;;;;;;5087774;28;20051;-71
2021/05/02 05:16:11;;;;;;;1999.90;999.90;;;5.90;80.40;;;;;;5104258;28;20055;-71
2021/05/02 05:18:37;;;;;;;1999.90;999.90;;;6.00;80.70;;;;;;5090829;28;20430;-71
2021/05/02 05:21:04;;;;;;;1999.90;999.90;;;6.00;80.80;;;;;;5098369;28;20091;-71
2021/05/02 05:23:31;;;;;;;1999.90;999.90;;;6.10;81.30;;;;;;5089650;28;20040;-71
2021/05/02 05:25:57;;;;;;;1999.90;999.90;;;6.10;81.10;;;;;;5091891;28;20040;-71
2021/05/02 05:28:23;;;;;;;1999.90;999.90;;;6.20;81.20;;;;;;5080341;28;20052;-72
2021/05/02 05:30:52;;;;;;;1999.90;999.90;;;6.30;81.50;;;;;;5077802;28;20066;-71
2021/05/02 05:33:19;;;;;;;1999.90;999.90;;;6.30;81.60;;;;;;5088747;28;20142;-71
2021/05/02 05:35:45;;;;;;;1999.90;999.90;;;6.40;82.00;;;;;;5089511;28;20506;-71
2021/05/02 05:38:13;;;;;;;1999.90;999.90;;;6.50;82.30;;;;;;5077999;28;20171;-71
2021/05/02 05:40:40;;;;;;;1999.90;999.90;;;6.50;82.30;;;;;;5073621;28;20048;-72
2021/05/02 05:43:07;;;;;;;1999.90;999.90;;;6.60;82.40;;;;;;5073511;28;20045;-71
2021/05/02 05:45:34;;;;;;;1999.90;999.90;;;6.60;83.30;;;;;;5090312;28;20067;-71
2021/05/02 05:48:01;;;;;;;1999.90;999.90;;;6.70;83.60;;;;;;5093765;28;20090;-71
2021/05/02 05:50:28;;;;;;;1999.90;999.90;;;6.70;84.00;;;;;;5088691;28;20052;-71
2021/05/02 05:52:55;;;;;;;1999.90;999.90;;;6.80;84.10;;;;;;5076946;28;20047;-72
2021/05/02 05:55:22;;;;;;;1999.90;999.90;;;6.90;84.00;;;;;;5082915;28;20052;-71
2021/05/02 05:57:49;;;;;;;1999.90;999.90;;;6.90;84.80;;;;;;5074603;28;20048;-72
2021/05/02 06:00:18;;;;;;;1999.90;999.90;;;7.00;85.40;;;;;;5092524;28;20052;-72
2021/05/02 06:02:44;;;;;;;1999.90;999.90;;;7.00;86.40;;;;;;5067692;28;20120;-71
2021/05/02 06:05:12;;;;;;;1999.90;999.90;;;7.10;86.70;;;;;;5084918;28;20070;-71
2021/05/02 06:07:38;;;;;;;1999.90;999.90;;;7.20;86.90;;;;;;5089711;28;20422;-71
2021/05/02 06:10:05;;;;;;;1999.90;999.90;;;7.30;86.60;;;;;;5087665;28;20039;-71
2021/05/02 06:12:32;;;;;;;1999.90;999.90;;;7.30;86.60;;;;;;5086220;28;20047;-71
2021/05/02 06:15:00;;;;;;;1999.90;999.90;;;7.40;87.80;;;;;;5084427;28;20047;-72
2021/05/02 06:17:27;;;;;;;1999.90;999.90;;;7.50;88.10;;;;;;5090336;28;20044;-71
2021/05/02 06:19:53;;;;;;;1999.90;999.90;;;7.60;88.20;;;;;;5083134;28;20321;-71
2021/05/02 06:22:20;;;;;;;1999.90;999.90;;;7.70;88.40;;;;;;5082773;28;20046;-71
2021/05/02 06:24:46;;;;;;;1999.90;999.90;;;7.80;88.20;;;;;;5068093;28;20131;-71
2021/05/02 06:27:13;;;;;;;1999.90;999.90;;;7.90;88.10;;;;;;5068244;28;20811;-71
2021/05/02 06:29:41;;;;;;;1999.90;999.90;;;8.00;88.60;;;;;;5085273;28;20380;-72
2021/05/02 06:32:07;;;;;;;1999.90;999.90;;;8.10;88.50;;;;;;5086637;28;20040;-71
2021/05/02 06:34:33;;;;;;;1999.90;999.90;;;8.20;87.60;;;;;;5083331;28;20056;-72
2021/05/02 06:37:00;;;;;;;1999.90;999.90;;;8.20;88.50;;;;;;5086317;28;20135;-71
2021/05/02 06:39:26;;;;;;;1999.90;999.90;;;8.30;87.80;;;;;;5066790;28;20483;-71
2021/05/02 06:41:53;;;;;;;1999.90;999.90;;;8.40;88.30;;;;;;5067121;28;20123;-72
2021/05/02 06:44:20;;;;;;;1999.90;999.90;;;8.40;88.20;;;;;;5080950;28;20483;-71
2021/05/02 06:46:47;;;;;;;1999.90;999.90;;;8.50;87.70;;;;;;5086379;28;20054;-71
2021/05/02 06:49:14;;;;;;;1999.90;999.90;;;8.40;87.70;;;;;;5085328;28;20048;-71
2021/05/02 06:51:40;;;;;;;1999.90;999.90;;;8.50;87.40;;;;;;5087788;28;20482;-72
2021/05/02 06:54:07;;;;;;;1999.90;999.90;;;8.60;87.40;;;;;;5075004;28;20051;-71
2021/05/02 06:56:35;;;;;;;1999.90;999.90;;;8.70;87.70;;;;;;5084834;28;20119;-72
2021/05/02 06:59:02;;;;;;;1999.90;999.90;;;8.80;87.70;;;;;;5084958;28;20519;-71
2021/05/02 07:01:29;;;;;;;1999.90;999.90;;;8.70;87.50;;;;;;5083110;28;20522;-71
2021/05/02 07:03:56;;;;;;;1999.90;999.90;;;8.80;87.70;;;;;;5100242;27;20059;-71
2021/05/02 07:06:31;;;;;;;1999.90;999.90;;;8.70;87.40;;;;;;5086207;28;20121;-71
2021/05/02 07:08:57;;;;;;;1999.90;999.90;;;8.90;88.60;;;;;;5066493;28;20048;-71
2021/05/02 07:11:23;;;;;;;1999.90;999.90;;;8.90;87.20;;;;;;5065033;28;20052;-71
2021/05/02 07:13:50;;;;;;;1999.90;999.90;;;9.00;87.30;;;;;;5082434;28;20063;-71
2021/05/02 07:16:17;;;;;;;1999.90;999.90;;;9.10;87.00;;;;;;5083557;28;20083;-71
2021/05/02 07:18:44;;;;;;;1999.90;999.90;;;9.20;86.80;;;;;;5072700;28;20044;-71
2021/05/02 07:21:11;;;;;;;1999.90;999.90;;;9.40;86.90;;;;;;5097500;27;20058;-71
2021/05/02 07:23:39;;;;;;;1999.90;999.90;;;9.50;86.70;;;;;;5084589;28;20040;-71
2021/05/02 07:26:07;;;;;;;1999.90;999.90;;;9.60;86.60;;;;;;5083563;28;20048;-71
2021/05/02 07:28:34;;;;;;;1999.90;999.90;;;9.60;86.10;;;;;;5080209;28;20131;-71
2021/05/02 07:31:00;;;;;;;1999.90;999.90;;;9.60;85.90;;;;;;5080386;28;20044;-71
2021/05/02 07:33:27;;;;;;;1999.90;999.90;;;9.60;86.00;;;;;;5082311;28;20047;-71
2021/05/02 07:35:56;;;;;;;1999.90;999.90;;;9.50;85.50;;;;;;5078906;28;20070;-71
2021/05/02 07:38:23;;;;;;;1999.90;999.90;;;9.50;85.40;;;;;;5081432;28;20052;-71
2021/05/02 07:40:50;;;;;;;1999.90;999.90;;;9.40;85.50;;;;;;5083013;28;20052;-71
2021/05/02 07:43:17;;;;;;;1999.90;999.90;;;9.50;85.90;;;;;;5080684;28;20082;-71
2021/05/02 07:45:44;;;;;;;1999.90;999.90;;;9.50;85.50;;;;;;5062006;28;20121;-71
2021/05/02 07:48:10;;;;;;;1999.90;999.90;;;9.70;85.90;;;;;;5080859;28;20032;-71
2021/05/02 07:50:37;;;;;;;1999.90;999.90;;;9.90;86.10;;;;;;5081211;28;20074;-71
2021/05/02 07:53:05;;;;;;;1999.90;999.90;;;10.00;85.10;;;;;;5069804;28;20558;-71
2021/05/02 07:55:32;;;;;;;1999.90;999.90;;;10.10;84.30;;;;;;5081917;28;20547;-71
2021/05/02 07:57:58;;;;;;;1999.90;999.90;;;10.10;83.30;;;;;;5081915;28;20040;-71
2021/05/02 08:00:25;;;;;;;1999.90;999.90;;;10.00;83.30;;;;;;5064144;28;20048;-71
2021/05/02 08:02:51;;;;;;;1999.90;999.90;;;9.90;83.60;;;;;;5072627;28;20155;-71
2021/05/02 08:05:18;;;;;;;1999.90;999.90;;;9.70;83.00;;;;;;5082699;28;20044;-71
2021/05/02 08:07:44;;;;;;;1999.90;999.90;;;9.60;83.60;;;;;;5083974;28;20480;-71
2021/05/02 08:10:11;;;;;;;1999.90;999.90;;;9.50;83.50;;;;;;5082468;28;20349;-71
2021/05/02 08:12:38;;;;;;;1999.90;999.90;;;9.50;84.00;;;;;;5082585;28;20044;-70
2021/05/02 08:15:06;;;;;;;1999.90;999.90;;;9.50;84.60;;;;;;5082311;28;20424;-72
2021/05/02 08:17:32;;;;;;;1999.90;999.90;;;9.70;85.30;;;;;;5082243;28;20044;-72
2021/05/02 08:19:59;;;;;;;1999.90;999.90;;;9.90;85.40;;;;;;5082040;28;20059;-72
2021/05/02 08:22:26;;;;;;;1999.90;999.90;;;10.10;84.00;;;;;;5083182;28;20125;-71
2021/05/02 08:24:52;;;;;;;1999.90;999.90;;;10.30;83.50;;;;;;5081840;28;20415;-71
2021/05/02 08:27:18;;;;;;;1999.90;999.90;;;10.50;83.80;;;;;;5098933;28;20066;-71
2021/05/02 08:29:44;;;;;;;1999.90;999.90;;;10.70;83.80;;;;;;5064329;28;20045;-72
2021/05/02 08:32:11;;;;;;;1999.90;999.90;;;10.90;83.50;;;;;;5098441;28;20659;-72
2021/05/02 08:34:38;;;;;;;1999.90;999.90;;;11.10;83.30;;;;;;5081479;28;20040;-72
2021/05/02 08:37:06;;;;;;;1999.90;999.90;;;11.20;82.80;;;;;;5066137;28;20127;-71
2021/05/02 08:39:33;;;;;;;1999.90;999.90;;;11.40;82.80;;;;;;5098242;28;20044;-72
2021/05/02 08:42:00;;;;;;;1999.90;999.90;;;11.60;82.30;;;;;;5082152;28;20048;-72
2021/05/02 08:44:29;;;;;;;1999.90;999.90;;;11.70;80.80;;;;;;5098047;28;20044;-71
2021/05/02 08:46:55;;;;;;;1999.90;999.90;;;11.50;80.10;;;;;;5083944;28;20084;-71
2021/05/02 08:49:22;;;;;;;1999.90;999.90;;;11.30;80.10;;;;;;5099682;28;20047;-71
2021/05/02 08:51:48;;;;;;;1999.90;999.90;;;11.30;78.90;;;;;;5101558;28;20040;-70
2021/05/02 08:54:15;;;;;;;1999.90;999.90;;;11.20;79.30;;;;;;5084131;28;20059;-70
2021/05/02 08:56:41;;;;;;;1999.90;999.90;;;11.40;79.70;;;;;;5077844;28;20040;-71
2021/05/02 08:59:09;;;;;;;1999.90;999.90;;;11.50;79.70;;;;;;5079941;28;20410;-71
2021/05/02 09:01:35;;;;;;;1999.90;999.90;;;11.70;79.60;;;;;;5062248;28;20380;-71
2021/05/02 09:04:04;;;;;;;1999.90;999.90;;;11.70;79.30;;;;;;5098642;28;20040;-70
2021/05/02 09:06:31;;;;;;;1999.90;999.90;;;11.70;79.30;;;;;;5079993;28;20048;-71
2021/05/02 09:09:03;;;;;;;1999.90;999.90;;;11.70;79.10;;;;;;5081300;28;20207;-71
2021/05/02 09:11:32;;;;;;;1999.90;999.90;;;11.60;78.60;;;;;;5067042;28;20135;-71
2021/05/02 09:14:00;;;;;;;1999.90;999.90;;;11.40;77.00;;;;;;5086166;28;20554;-71
2021/05/02 09:16:27;;;;;;;1999.90;999.90;;;11.10;78.00;;;;;;5067292;28;20048;-71
2021/05/02 09:19:00;;;;;;;1999.90;999.90;;;10.90;78.20;;;;;;5069335;28;20051;-71
2021/05/02 09:21:31;;;;;;;1999.90;999.90;;;10.60;77.70;;;;;;5084383;28;20354;-71
2021/05/02 09:23:59;;;;;;;1999.90;999.90;;;10.40;78.80;;;;;;5085721;28;20126;-71
2021/05/02 09:26:28;;;;;;;1999.90;999.90;;;10.30;79.70;;;;;;5085453;28;20718;-70
2021/05/02 09:28:56;;;;;;;1999.90;999.90;;;10.40;80.50;;;;;;5084049;28;20056;-70
2021/05/02 09:31:31;;;;;;;1999.90;999.90;;;10.40;80.90;;;;;;5064724;28;20498;-71
2021/05/02 09:34:14;;;;;;;1999.90;999.90;;;10.40;80.70;;;;;;5068790;28;20113;-70
2021/05/02 09:36:55;;;;;;;1999.90;999.90;;;10.50;80.80;;;;;;5085807;28;20066;-71
2021/05/02 09:39:42;;;;;;;1999.90;999.90;;;10.40;80.40;;;;;;5085967;28;20048;-71
2021/05/02 09:42:10;;;;;;;1999.90;999.90;;;10.40;80.60;;;;;;5084819;28;20044;-71
2021/05/02 09:44:49;;;;;;;1999.90;999.90;;;10.40;80.60;;;;;;5073704;28;20400;-70
2021/05/02 09:52:53;;;;;;;2.63;0.80;;;10.70;81.80;;;;;;5087464;27;20417;-70
2021/05/02 09:55:20;;;;;;;;;;;11.00;83.00;;;;;;5075237;28;20044;-70
2021/05/02 09:58:00;;;;;;;;;;;11.20;78.80;;;;;;5065546;28;20878;-70
2021/05/02 10:00:45;;;;;;;;;;;11.30;80.20;;;;;;5057898;28;19928;-69
2021/05/02 10:05:31;;;;;;;;;;;11.20;78.40;;;;;;5063133;28;19928;-69
2021/05/02 10:07:57;;;;;;;;;;;11.20;79.20;;;;;;5042257;28;20459;-69
2021/05/02 10:10:24;;;;;;;;;;;11.10;76.60;;;;;;4878819;27;111623;-68
2021/05/02 10:12:51;;;;;;;;;;;11.00;78.50;;;;;;4972643;28;21016;-69
2021/05/02 10:15:18;;;;;;;;;;;10.90;75.60;;;;;;4997556;28;19933;-69
2021/05/02 10:17:47;;;;;;;;;;;11.00;77.10;;;;;;5011725;28;19944;-69
2021/05/02 10:20:13;;;;;;;;;;;11.00;78.30;;;;;;5016010;28;19951;-69
2021/05/02 10:22:40;;;;;;;;;;;11.10;78.90;;;;;;5018816;28;19935;-69
2021/05/02 10:25:07;;;;;;;;;;;11.30;77.90;;;;;;5015541;28;19940;-69
2021/05/02 10:27:45;;;;;;;;;;;11.30;76.70;;;;;;5017261;28;20395;-69
2021/05/02 10:30:18;;;;;;;;;;;11.30;76.60;;;;;;4985512;28;20377;-69
2021/05/02 10:32:48;;;;;;;;;;;11.30;76.90;;;;;;5030900;28;20284;-69
2021/05/02 10:35:15;;;;;;;;;;;11.10;76.70;;;;;;5016468;28;19925;-69
2021/05/02 10:37:51;;;;;;;;;;;10.90;77.20;;;;;;5020271;28;19941;-69
2021/05/02 10:40:20;;;;;;;;;;;10.70;77.70;;;;;;4970678;28;19978;-69
2021/05/02 10:42:50;;;;;;;;;;;10.60;78.80;;;;;;5048082;28;19925;-69
2021/05/02 10:45:28;;;;;;;;;;;10.30;80.80;;;;;;5015845;28;20328;-69
2021/05/02 10:47:55;;;;;;;;;;;10.00;81.70;;;;;;5016495;28;19957;-69
2021/05/02 10:50:25;;;;;;;;;;;9.70;80.40;;;;;;5018126;28;20416;-69
2021/05/02 10:53:05;;;;;;;;;;;9.60;81.00;;;;;;4985708;28;19933;-69
2021/05/02 10:55:46;;;;;;;;;;;9.50;82.40;;;;;;5017338;28;20327;-69
2021/05/02 10:58:23;;;;;;;;;;;9.50;82.20;;;;;;5012773;28;19940;-70
2021/05/02 11:01:10;;;;;;;;;;;9.70;86.10;;;;;;5011555;28;19979;-70
2021/05/02 11:06:06;;;;;;;;;;;10.70;88.50;;;;;;5035456;28;19928;-70
2021/05/02 11:08:49;;;;;;;;;;;11.20;87.40;;;;;;5036344;28;19933;-69
2021/05/02 11:11:42;;;;;;;;;;;11.70;87.10;;;;;;5035921;28;19928;-69
2021/05/02 11:16:35;;;;;;;;;;;11.90;82.50;;;;;;5025001;28;19925;-69
2021/05/02 11:19:02;;;;;;;;;;;11.80;83.30;;;;;;5022546;28;20015;-69
2021/05/02 11:21:56;;;;;;;;;;;11.50;82.70;;;;;;5024759;28;20376;-69
2021/05/02 11:24:23;;;;;;;;;;;11.20;82.60;;;;;;5038483;28;19943;-69
2021/05/02 11:26:59;;;;;;;;;;;10.90;82.20;;;;;;5023801;28;19939;-69
2021/05/02 11:29:50;;;;;;;;;;;10.80;83.70;;;;;;5020485;28;19925;-70
2021/05/02 11:32:28;;;;;;;;;;;10.90;83.50;;;;;;5023812;28;19929;-69
2021/05/02 11:34:58;;;;;;;;;;;10.90;82.80;;;;;;5020608;28;19976;-69
2021/05/02 11:37:36;;;;;;;;;;;10.80;82.90;;;;;;5024336;28;20375;-69
2021/05/02 11:40:22;;;;;;;;;;;10.70;81.40;;;;;;5022206;28;19937;-69
2021/05/02 11:42:58;;;;;;;;;;;10.60;82.20;;;;;;5015778;28;19929;-69
2021/05/02 11:45:25;;;;;;;;;;;10.60;83.20;;;;;;5015589;28;19960;-69
2021/05/02 11:47:52;;;;;;;;;;;10.70;84.40;;;;;;5022859;28;20404;-69
2021/05/02 11:50:18;;;;;;;;;;;11.00;82.60;;;;;;5020278;28;20024;-69
2021/05/02 11:52:47;;;;;;;;;;;11.30;82.10;;;;;;5024076;28;19925;-69
2021/05/02 11:55:30;;;;;;;;;;;11.60;81.30;;;;;;5020257;28;20277;-69
2021/05/02 11:57:57;;;;;;;;;;;12.00;81.40;;;;;;5022987;28;20336;-70
2021/05/02 12:00:39;;;;;;;;;;;12.20;77.30;;;;;;5021966;28;20253;-69
2021/05/02 12:03:06;;;;;;;;;;;12.30;75.20;;;;;;5054768;28;19925;-69
2021/05/02 12:05:32;;;;;;;;;;;12.30;75.40;;;;;;5021448;28;20362;-69
2021/05/02 12:08:11;;;;;;;;;;;12.30;75.30;;;;;;5023842;28;19931;-69
2021/05/02 12:10:38;;;;;;;;;;;12.40;76.40;;;;;;5022746;28;19936;-69
2021/05/02 12:13:05;;;;;;;;;;;12.50;75.20;;;;;;5025390;28;19929;-69
2021/05/02 12:15:32;;;;;;;;;;;12.50;77.70;;;;;;5023284;28;19948;-69
2021/05/02 12:17:59;;;;;;;;;;;12.70;77.10;;;;;;5023780;28;19960;-69
2021/05/02 12:20:26;;;;;;;;;;;12.90;72.90;;;;;;5019143;28;20005;-69
2021/05/02 12:22:52;;;;;;;;;;;13.00;71.80;;;;;;5026156;28;19929;-69
2021/05/02 12:25:19;;;;;;;;;;;13.00;68.70;;;;;;5021207;28;19925;-69
2021/05/02 12:28:00;;;;;;;;;;;13.00;71.60;;;;;;5021835;28;19939;-69
2021/05/02 12:30:27;;;;;;;;;;;13.00;73.00;;;;;;5021113;28;19925;-69
2021/05/02 12:32:55;;;;;;;;;;;12.90;69.80;;;;;;5025888;28;19937;-69
2021/05/02 12:35:22;;;;;;;;;;;12.90;67.20;;;;;;5022110;28;19944;-69
2021/05/02 12:37:48;;;;;;;;;;;12.80;70.60;;;;;;5023813;28;19963;-69
2021/05/02 12:40:14;;;;;;;;;;;12.90;72.70;;;;;;5037384;28;19956;-69
2021/05/02 12:42:41;;;;;;;;;;;13.00;70.70;;;;;;5024463;28;19947;-69
2021/05/02 12:45:09;;;;;;;;;;;13.20;70.90;;;;;;5019679;28;19925;-70
2021/05/02 12:47:39;;;;;;;;;;;13.30;70.00;;;;;;5024015;28;19935;-69
2021/05/02 12:50:07;;;;;;;;;;;13.40;70.80;;;;;;5023577;28;19948;-69
2021/05/02 12:52:34;;;;;;;;;;;13.30;66.30;;;;;;5025227;28;19925;-69
2021/05/02 12:55:16;;;;;;;;;;;13.20;66.60;;;;;;5022360;28;19931;-69
2021/05/02 12:57:47;;;;;;;;;;;13.30;68.30;;;;;;5024095;28;19929;-69